sensor_id;sensor_type;location;lat;lon;timestamp;pressure;altitude;pressure_sealevel;temperature;humidity
54122;BME280;40029;58.708;50.190;2023-02-28T00:00:48;99001.53;;;-2.51;45.74
54122;BME280;40029;58.708;50.190;2023-02-28T00:03:19;99000.72;;;-2.26;45.04
54122;BME280;40029;58.708;50.190;2023-02-28T00:05:50;98942.88;;;-2.54;44.83
54122;BME280;40029;58.708;50.190;2023-02-28T00:08:21;98987.97;;;-2.21;44.44
54122;BME280;40029;58.708;50.190;2023-02-28T00:10:52;98975.22;;;-2.29;44.93
54122;BME280;40029;58.708;50.190;2023-02-28T00:13:23;98982.00;;;-2.26;44.61
54122;BME280;40029;58.708;50.190;2023-02-28T00:16:02;98991.38;;;-2.08;44.28
54122;BME280;40029;58.708;50.190;2023-02-28T00:18:34;98929.31;;;-2.38;44.56
54122;BME280;40029;58.708;50.190;2023-02-28T00:21:06;98970.13;;;-2.18;44.44
54122;BME280;40029;58.708;50.190;2023-02-28T00:23:56;98991.34;;;-2.45;43.70
54122;BME280;40029;58.708;50.190;2023-02-28T00:26:27;98944.53;;;-2.82;44.08
54122;BME280;40029;58.708;50.190;2023-02-28T00:28:58;98876.50;;;-3.09;43.92
54122;BME280;40029;58.708;50.190;2023-02-28T00:31:29;98980.28;;;-2.48;43.42
54122;BME280;40029;58.708;50.190;2023-02-28T00:34:00;98959.91;;;-2.39;43.72
54122;BME280;40029;58.708;50.190;2023-02-28T00:36:31;98913.16;;;-2.46;43.51
54122;BME280;40029;58.708;50.190;2023-02-28T00:39:02;98895.28;;;-2.52;43.75
54122;BME280;40029;58.708;50.190;2023-02-28T00:41:34;98934.38;;;-2.52;43.88
54122;BME280;40029;58.708;50.190;2023-02-28T00:44:05;98927.59;;;-2.36;44.03
54122;BME280;40029;58.708;50.190;2023-02-28T00:46:36;98892.72;;;-2.60;44.09
54122;BME280;40029;58.708;50.190;2023-02-28T00:49:26;98941.19;;;-2.54;43.55
54122;BME280;40029;58.708;50.190;2023-02-28T00:51:58;98896.13;;;-2.44;43.50
54122;BME280;40029;58.708;50.190;2023-02-28T00:54:30;98852.75;;;-2.59;43.92
54122;BME280;40029;58.708;50.190;2023-02-28T00:57:01;98896.97;;;-2.22;43.56
54122;BME280;40029;58.708;50.190;2023-02-28T00:59:33;98848.50;;;-2.51;43.59
54122;BME280;40029;58.708;50.190;2023-02-28T01:02:04;98906.31;;;-2.13;43.92
54122;BME280;40029;58.708;50.190;2023-02-28T01:04:35;98897.84;;;-2.20;44.18
54122;BME280;40029;58.708;50.190;2023-02-28T01:07:06;98893.56;;;-2.30;43.85
54122;BME280;40029;58.708;50.190;2023-02-28T01:09:38;98847.69;;;-2.67;44.37
54122;BME280;40029;58.708;50.190;2023-02-28T01:12:09;98787.31;;;-3.06;43.87
54122;BME280;40029;58.708;50.190;2023-02-28T01:14:40;98830.66;;;-2.69;44.68
54122;BME280;40029;58.708;50.190;2023-02-28T01:17:11;98813.69;;;-2.75;44.61
54122;BME280;40029;58.708;50.190;2023-02-28T01:19:42;98828.97;;;-2.69;44.04
54122;BME280;40029;58.708;50.190;2023-02-28T01:22:14;98814.53;;;-2.73;43.74
54122;BME280;40029;58.708;50.190;2023-02-28T01:24:47;98858.72;;;-2.49;43.16
54122;BME280;40029;58.708;50.190;2023-02-28T01:27:18;98812.00;;;-2.93;43.14
54122;BME280;40029;58.708;50.190;2023-02-28T01:29:50;98851.94;;;-2.67;44.09
54122;BME280;40029;58.708;50.190;2023-02-28T01:32:22;98834.06;;;-2.60;43.52
54122;BME280;40029;58.708;50.190;2023-02-28T01:34:54;98853.63;;;-2.60;42.99
54122;BME280;40029;58.708;50.190;2023-02-28T01:37:44;98825.56;;;-2.79;43.92
54122;BME280;40029;58.708;50.190;2023-02-28T01:40:15;98806.03;;;-2.86;43.31
54122;BME280;40029;58.708;50.190;2023-02-28T01:42:46;98811.97;;;-2.81;43.61
54122;BME280;40029;58.708;50.190;2023-02-28T01:48:02;98850.22;;;-2.68;42.91
54122;BME280;40029;58.708;50.190;2023-02-28T01:50:38;98801.78;;;-2.94;43.49
54122;BME280;40029;58.708;50.190;2023-02-28T01:53:18;98847.66;;;-2.70;43.37
54122;BME280;40029;58.708;50.190;2023-02-28T01:55:52;98803.47;;;-2.98;43.35
54122;BME280;40029;58.708;50.190;2023-02-28T01:58:25;98845.13;;;-2.87;42.86
54122;BME280;40029;58.708;50.190;2023-02-28T02:00:56;98793.28;;;-2.99;42.90
54122;BME280;40029;58.708;50.190;2023-02-28T02:03:28;98800.91;;;-2.72;43.38
54122;BME280;40029;58.708;50.190;2023-02-28T02:06:00;98812.00;;;-2.88;43.27
54122;BME280;40029;58.708;50.190;2023-02-28T02:08:31;98763.53;;;-2.99;42.74
54122;BME280;40029;58.708;50.190;2023-02-28T02:11:02;98741.44;;;-2.94;43.06
54122;BME280;40029;58.708;50.190;2023-02-28T02:16:34;98787.31;;;-2.68;43.20
54122;BME280;40029;58.708;50.190;2023-02-28T02:27:48;98740.59;;;-2.62;42.95
54122;BME280;40029;58.708;50.190;2023-02-28T02:36:46;98737.19;;;-2.77;43.44
54122;BME280;40029;58.708;50.190;2023-02-28T02:40:09;98716.84;;;-2.96;42.94
54122;BME280;40029;58.708;50.190;2023-02-28T02:43:17;98716.81;;;-2.83;42.38
54122;BME280;40029;58.708;50.190;2023-02-28T02:46:02;98646.34;;;-3.16;42.43
54122;BME280;40029;58.708;50.190;2023-02-28T02:48:38;98635.31;;;-3.53;42.41
54122;BME280;40029;58.708;50.190;2023-02-28T02:51:15;98672.69;;;-3.40;42.98
54122;BME280;40029;58.708;50.190;2023-02-28T02:53:50;98580.16;;;-3.92;42.84
54122;BME280;40029;58.708;50.190;2023-02-28T02:56:44;98589.50;;;-4.07;43.23
54122;BME280;40029;58.708;50.190;2023-02-28T02:59:20;98674.38;;;-3.56;43.70
54122;BME280;40029;58.708;50.190;2023-02-28T03:01:56;98581.03;;;-3.89;43.31
54122;BME280;40029;58.708;50.190;2023-02-28T03:04:32;98581.03;;;-3.80;43.55
54122;BME280;40029;58.708;50.190;2023-02-28T03:07:05;98633.66;;;-3.65;43.54
54122;BME280;40029;58.708;50.190;2023-02-28T03:09:37;98626.84;;;-3.61;43.88
54122;BME280;40029;58.708;50.190;2023-02-28T03:12:12;98601.38;;;-3.66;43.79
54122;BME280;40029;58.708;50.190;2023-02-28T03:20:39;98586.13;;;-3.63;44.46
54122;BME280;40029;58.708;50.190;2023-02-28T03:24:27;98585.25;;;-3.45;43.66
54122;BME280;40029;58.708;50.190;2023-02-28T03:26:54;98560.66;;;-3.61;44.14
54122;BME280;40029;58.708;50.190;2023-02-28T03:32:24;98542.84;;;-3.58;43.97
54122;BME280;40029;58.708;50.190;2023-02-28T03:35:02;98527.56;;;-3.70;44.29
54122;BME280;40029;58.708;50.190;2023-02-28T03:37:39;98458.06;;;-3.97;44.38
54122;BME280;40029;58.708;50.190;2023-02-28T03:40:14;98473.28;;;-3.65;44.60
54122;BME280;40029;58.708;50.190;2023-02-28T03:42:50;98497.00;;;-3.50;44.29
54122;BME280;40029;58.708;50.190;2023-02-28T03:45:29;98501.28;;;-3.63;43.87
54122;BME280;40029;58.708;50.190;2023-02-28T03:48:18;98489.34;;;-3.43;44.15
54122;BME280;40029;58.708;50.190;2023-02-28T03:50:54;98430.00;;;-3.71;43.95
54122;BME280;40029;58.708;50.190;2023-02-28T03:53:39;98421.50;;;-3.62;43.76
54122;BME280;40029;58.708;50.190;2023-02-28T03:56:26;98468.94;;;-3.26;43.75
54122;BME280;40029;58.708;50.190;2023-02-28T03:59:25;98389.25;;;-3.56;43.74
54122;BME280;40029;58.708;50.190;2023-02-28T04:01:58;98334.22;;;-3.86;43.55
54122;BME280;40029;58.708;50.190;2023-02-28T04:04:30;98369.78;;;-3.67;43.27
54122;BME280;40029;58.708;50.190;2023-02-28T04:07:07;98416.28;;;-3.25;43.86
54122;BME280;40029;58.708;50.190;2023-02-28T04:09:39;98374.84;;;-3.60;43.58
54122;BME280;40029;58.708;50.190;2023-02-28T04:12:10;98418.88;;;-3.35;43.40
54122;BME280;40029;58.708;50.190;2023-02-28T04:14:41;98354.44;;;-3.52;43.19
54122;BME280;40029;58.708;50.190;2023-02-28T04:17:15;98337.47;;;-3.53;44.00
54122;BME280;40029;58.708;50.190;2023-02-28T04:19:46;98378.06;;;-3.25;44.38
54122;BME280;40029;58.708;50.190;2023-02-28T04:22:17;98328.28;;;-3.86;44.26
54122;BME280;40029;58.708;50.190;2023-02-28T04:24:48;98359.38;;;-3.23;43.82
54122;BME280;40029;58.708;50.190;2023-02-28T04:27:20;98366.09;;;-3.05;43.83
54122;BME280;40029;58.708;50.190;2023-02-28T04:29:51;98310.22;;;-3.37;44.05
54122;BME280;40029;58.708;50.190;2023-02-28T04:32:23;98294.22;;;-3.59;44.86
54122;BME280;40029;58.708;50.190;2023-02-28T04:35:12;98265.25;;;-3.41;43.43
54122;BME280;40029;58.708;50.190;2023-02-28T04:38:01;98295.78;;;-3.35;43.98
54122;BME280;40029;58.708;50.190;2023-02-28T04:40:32;98293.97;;;-3.19;43.61
54122;BME280;40029;58.708;50.190;2023-02-28T04:43:03;98253.28;;;-3.29;43.57
54122;BME280;40029;58.708;50.190;2023-02-28T04:45:53;98305.72;;;-2.95;43.01
54122;BME280;40029;58.708;50.190;2023-02-28T04:48:28;98284.47;;;-2.96;43.10
54122;BME280;40029;58.708;50.190;2023-02-28T04:51:01;98289.69;;;-3.13;44.15
54122;BME280;40029;58.708;50.190;2023-02-28T04:53:50;98257.34;;;-3.06;44.93
54122;BME280;40029;58.708;50.190;2023-02-28T04:56:22;98206.72;;;-3.40;48.43
54122;BME280;40029;58.708;50.190;2023-02-28T04:58:53;98203.28;;;-3.40;48.38
54122;BME280;40029;58.708;50.190;2023-02-28T05:01:30;98242.97;;;-3.09;49.17
54122;BME280;40029;58.708;50.190;2023-02-28T05:04:03;98238.75;;;-3.13;49.77
54122;BME280;40029;58.708;50.190;2023-02-28T05:06:34;98176.16;;;-3.44;50.16
54122;BME280;40029;58.708;50.190;2023-02-28T05:09:05;98186.22;;;-3.28;50.80
54122;BME280;40029;58.708;50.190;2023-02-28T05:11:37;98207.25;;;-3.04;49.95
54122;BME280;40029;58.708;50.190;2023-02-28T05:14:11;98170.13;;;-3.31;50.12
54122;BME280;40029;58.708;50.190;2023-02-28T05:16:43;98148.19;;;-3.47;50.22
54122;BME280;40029;58.708;50.190;2023-02-28T05:19:14;98192.09;;;-3.19;50.55
54122;BME280;40029;58.708;50.190;2023-02-28T05:21:51;98143.78;;;-3.27;50.90
54122;BME280;40029;58.708;50.190;2023-02-28T05:24:23;98091.16;;;-3.30;50.30
54122;BME280;40029;58.708;50.190;2023-02-28T05:26:54;98140.28;;;-3.14;52.15
54122;BME280;40029;58.708;50.190;2023-02-28T05:29:25;98151.13;;;-2.95;53.14
54122;BME280;40029;58.708;50.190;2023-02-28T05:32:15;98105.84;;;-3.56;53.39
54122;BME280;40029;58.708;50.190;2023-02-28T05:34:46;98127.66;;;-3.26;53.48
54122;BME280;40029;58.708;50.190;2023-02-28T05:37:17;98132.66;;;-3.17;53.94
54122;BME280;40029;58.708;50.190;2023-02-28T05:39:48;98124.72;;;-2.89;54.45
54122;BME280;40029;58.708;50.190;2023-02-28T05:42:18;98118.88;;;-2.99;52.81
54122;BME280;40029;58.708;50.190;2023-02-28T05:44:50;98098.47;;;-2.96;52.76
54122;BME280;40029;58.708;50.190;2023-02-28T05:47:21;98090.88;;;-3.02;52.52
54122;BME280;40029;58.708;50.190;2023-02-28T05:49:52;98089.28;;;-3.09;52.98
54122;BME280;40029;58.708;50.190;2023-02-28T05:52:23;98103.47;;;-2.87;52.77
54122;BME280;40029;58.708;50.190;2023-02-28T05:54:54;98069.59;;;-2.98;52.82
54122;BME280;40029;58.708;50.190;2023-02-28T05:57:25;98066.91;;;-2.84;52.88
54122;BME280;40029;58.708;50.190;2023-02-28T05:59:56;98011.13;;;-3.07;52.66
54122;BME280;40029;58.708;50.190;2023-02-28T06:02:46;98051.88;;;-3.07;51.16
54122;BME280;40029;58.708;50.190;2023-02-28T06:05:17;98093.50;;;-3.08;52.73
54122;BME280;40029;58.708;50.190;2023-02-28T06:07:49;98068.06;;;-3.10;53.88
54122;BME280;40029;58.708;50.190;2023-02-28T06:10:20;98000.34;;;-3.32;53.66
54122;BME280;40029;58.708;50.190;2023-02-28T06:12:51;98031.72;;;-3.29;52.73
54122;BME280;40029;58.708;50.190;2023-02-28T06:15:22;98045.88;;;-3.03;53.30
54122;BME280;40029;58.708;50.190;2023-02-28T06:17:53;98031.44;;;-3.03;52.61
54122;BME280;40029;58.708;50.190;2023-02-28T06:20:27;98069.78;;;-3.13;51.94
54122;BME280;40029;58.708;50.190;2023-02-28T06:23:00;98062.47;;;-3.44;54.61
54122;BME280;40029;58.708;50.190;2023-02-28T06:25:31;98056.97;;;-3.07;57.21
54122;BME280;40029;58.708;50.190;2023-02-28T06:28:02;98029.00;;;-3.12;59.72
54122;BME280;40029;58.708;50.190;2023-02-28T06:30:51;97991.34;;;-3.61;58.59
54122;BME280;40029;58.708;50.190;2023-02-28T06:33:23;98061.75;;;-3.63;56.70
54122;BME280;40029;58.708;50.190;2023-02-28T06:35:54;98045.22;;;-3.17;58.94
54122;BME280;40029;58.708;50.190;2023-02-28T06:38:44;97998.00;;;-3.49;57.28
54122;BME280;40029;58.708;50.190;2023-02-28T06:41:15;98026.59;;;-3.22;57.37
54122;BME280;40029;58.708;50.190;2023-02-28T06:43:46;97978.19;;;-3.22;58.87
54122;BME280;40029;58.708;50.190;2023-02-28T06:46:17;98030.47;;;-2.92;57.38
54122;BME280;40029;58.708;50.190;2023-02-28T06:48:49;97996.75;;;-3.13;56.80
54122;BME280;40029;58.708;50.190;2023-02-28T06:51:20;98000.06;;;-3.05;55.61
54122;BME280;40029;58.708;50.190;2023-02-28T06:54:12;98018.69;;;-3.03;55.64
54122;BME280;40029;58.708;50.190;2023-02-28T06:56:43;98021.09;;;-2.89;55.87
54122;BME280;40029;58.708;50.190;2023-02-28T06:59:14;98004.09;;;-2.90;54.88
54122;BME280;40029;58.708;50.190;2023-02-28T07:01:45;97973.88;;;-3.17;54.97
54122;BME280;40029;58.708;50.190;2023-02-28T07:04:16;97970.13;;;-2.89;55.94
54122;BME280;40029;58.708;50.190;2023-02-28T07:06:47;97928.09;;;-3.23;54.45
54122;BME280;40029;58.708;50.190;2023-02-28T07:09:18;98006.91;;;-2.46;54.66
54122;BME280;40029;58.708;50.190;2023-02-28T07:11:49;98008.38;;;-2.30;55.13
54122;BME280;40029;58.708;50.190;2023-02-28T07:14:20;97917.75;;;-3.11;53.88
54122;BME280;40029;58.708;50.190;2023-02-28T07:16:52;97997.75;;;-2.60;54.42
54122;BME280;40029;58.708;50.190;2023-02-28T07:19:24;98008.03;;;-2.64;54.51
54122;BME280;40029;58.708;50.190;2023-02-28T07:21:55;97966.63;;;-2.82;54.75
54122;BME280;40029;58.708;50.190;2023-02-28T07:24:26;97973.16;;;-2.62;54.60
54122;BME280;40029;58.708;50.190;2023-02-28T07:26:59;97982.41;;;-2.54;53.63
54122;BME280;40029;58.708;50.190;2023-02-28T07:29:30;97941.25;;;-2.88;55.15
54122;BME280;40029;58.708;50.190;2023-02-28T07:32:01;97961.31;;;-2.66;54.68
54122;BME280;40029;58.708;50.190;2023-02-28T07:34:32;97934.94;;;-2.64;56.00
54122;BME280;40029;58.708;50.190;2023-02-28T07:37:03;97964.97;;;-2.27;55.19
54122;BME280;40029;58.708;50.190;2023-02-28T07:39:35;97906.06;;;-2.64;53.97
54122;BME280;40029;58.708;50.190;2023-02-28T07:42:06;97936.31;;;-2.43;54.09
54122;BME280;40029;58.708;50.190;2023-02-28T07:44:40;97913.44;;;-2.47;53.69
54122;BME280;40029;58.708;50.190;2023-02-28T07:47:13;97936.03;;;-2.24;53.10
54122;BME280;40029;58.708;50.190;2023-02-28T07:49:44;97937.00;;;-2.32;52.08
54122;BME280;40029;58.708;50.190;2023-02-28T07:52:16;97897.06;;;-2.33;52.62
54122;BME280;40029;58.708;50.190;2023-02-28T07:54:47;97922.31;;;-2.17;51.25
54122;BME280;40029;58.708;50.190;2023-02-28T07:57:18;97888.50;;;-2.30;52.12
54122;BME280;40029;58.708;50.190;2023-02-28T08:00:09;97939.44;;;-2.24;51.54
54122;BME280;40029;58.708;50.190;2023-02-28T08:02:45;97867.66;;;-2.54;52.21
54122;BME280;40029;58.708;50.190;2023-02-28T08:05:16;97918.81;;;-2.12;51.51
54122;BME280;40029;58.708;50.190;2023-02-28T08:07:49;97925.38;;;-1.97;50.72
54122;BME280;40029;58.708;50.190;2023-02-28T08:10:20;97896.06;;;-2.26;50.98
54122;BME280;40029;58.708;50.190;2023-02-28T08:12:51;97857.06;;;-2.31;51.17
54122;BME280;40029;58.708;50.190;2023-02-28T08:15:22;97903.41;;;-2.06;51.85
54122;BME280;40029;58.708;50.190;2023-02-28T08:17:53;97857.25;;;-2.43;52.09
54122;BME280;40029;58.708;50.190;2023-02-28T08:20:25;97868.50;;;-2.04;52.42
54122;BME280;40029;58.708;50.190;2023-02-28T08:22:56;97843.25;;;-2.19;51.92
54122;BME280;40029;58.708;50.190;2023-02-28T08:25:53;97875.91;;;-1.90;53.63
54122;BME280;40029;58.708;50.190;2023-02-28T08:28:24;97854.66;;;-1.90;53.33
54122;BME280;40029;58.708;50.190;2023-02-28T08:30:55;97852.38;;;-2.06;55.16
54122;BME280;40029;58.708;50.190;2023-02-28T08:33:27;97829.38;;;-2.04;54.33
54122;BME280;40029;58.708;50.190;2023-02-28T08:35:58;97840.53;;;-2.10;52.01
54122;BME280;40029;58.708;50.190;2023-02-28T08:38:29;97881.47;;;-1.69;51.77
54122;BME280;40029;58.708;50.190;2023-02-28T08:41:03;97828.38;;;-1.97;51.24
54122;BME280;40029;58.708;50.190;2023-02-28T08:43:36;97845.22;;;-1.87;50.55
54122;BME280;40029;58.708;50.190;2023-02-28T08:46:26;97871.50;;;-1.83;51.02
54122;BME280;40029;58.708;50.190;2023-02-28T08:48:57;97828.34;;;-1.95;51.46
54122;BME280;40029;58.708;50.190;2023-02-28T08:51:32;97798.75;;;-2.04;50.93
54122;BME280;40029;58.708;50.190;2023-02-28T08:54:03;97848.19;;;-1.66;50.35
54122;BME280;40029;58.708;50.190;2023-02-28T08:56:34;97813.28;;;-1.64;50.84
54122;BME280;40029;58.708;50.190;2023-02-28T08:59:09;97858.34;;;-1.21;49.76
54122;BME280;40029;58.708;50.190;2023-02-28T09:01:58;97858.13;;;-1.51;49.59
54122;BME280;40029;58.708;50.190;2023-02-28T09:04:29;97844.16;;;-1.35;51.02
54122;BME280;40029;58.708;50.190;2023-02-28T09:07:01;97801.31;;;-1.62;50.34
54122;BME280;40029;58.708;50.190;2023-02-28T09:09:33;97833.59;;;-1.19;49.16
54122;BME280;40029;58.708;50.190;2023-02-28T09:12:04;97837.97;;;-1.24;49.33
54122;BME280;40029;58.708;50.190;2023-02-28T09:14:35;97832.88;;;-1.24;48.66
54122;BME280;40029;58.708;50.190;2023-02-28T09:17:06;97798.81;;;-1.64;48.94
54122;BME280;40029;58.708;50.190;2023-02-28T09:19:38;97842.88;;;-1.15;49.05
54122;BME280;40029;58.708;50.190;2023-02-28T09:22:10;97840.22;;;-1.09;47.92
54122;BME280;40029;58.708;50.190;2023-02-28T09:24:42;97845.41;;;-1.14;48.12
54122;BME280;40029;58.708;50.190;2023-02-28T09:27:13;97835.31;;;-1.20;48.05
54122;BME280;40029;58.708;50.190;2023-02-28T09:30:02;97787.59;;;-1.58;48.93
54122;BME280;40029;58.708;50.190;2023-02-28T09:32:34;97786.19;;;-1.31;49.43
54122;BME280;40029;58.708;50.190;2023-02-28T09:35:05;97777.28;;;-1.15;48.41
54122;BME280;40029;58.708;50.190;2023-02-28T09:37:36;97818.50;;;-0.91;48.20
54122;BME280;40029;58.708;50.190;2023-02-28T09:40:09;97805.22;;;-1.07;48.51
54122;BME280;40029;58.708;50.190;2023-02-28T09:42:40;97811.22;;;-1.08;47.20
54122;BME280;40029;58.708;50.190;2023-02-28T09:45:39;97819.75;;;-1.09;47.19
54122;BME280;40029;58.708;50.190;2023-02-28T09:48:26;97807.31;;;-1.24;48.13
54122;BME280;40029;58.708;50.190;2023-02-28T09:51:04;97800.09;;;-1.07;48.22
54122;BME280;40029;58.708;50.190;2023-02-28T09:53:37;97817.78;;;-0.98;47.62
54122;BME280;40029;58.708;50.190;2023-02-28T09:56:15;97810.13;;;-0.98;47.19
54122;BME280;40029;58.708;50.190;2023-02-28T09:58:55;97764.16;;;-1.37;46.79
54122;BME280;40029;58.708;50.190;2023-02-28T10:07:35;97814.09;;;-0.85;47.32
54122;BME280;40029;58.708;50.190;2023-02-28T10:10:39;97809.94;;;-0.89;45.74
54122;BME280;40029;58.708;50.190;2023-02-28T10:13:24;97761.75;;;-1.06;45.92
54122;BME280;40029;58.708;50.190;2023-02-28T10:16:06;97796.94;;;-0.81;46.91
54122;BME280;40029;58.708;50.190;2023-02-28T10:24:58;97788.13;;;-0.68;45.44
54122;BME280;40029;58.708;50.190;2023-02-28T10:27:34;97744.38;;;-0.91;46.08
54122;BME280;40029;58.708;50.190;2023-02-28T10:30:05;97741.09;;;-1.34;48.94
54122;BME280;40029;58.708;50.190;2023-02-28T10:32:38;97796.97;;;-0.83;48.10
54122;BME280;40029;58.708;50.190;2023-02-28T10:37:42;97811.97;;;-0.67;47.01
54122;BME280;40029;58.708;50.190;2023-02-28T10:42:57;97751.38;;;-0.99;46.35
54122;BME280;40029;58.708;50.190;2023-02-28T10:45:31;97750.06;;;-0.80;46.45
54122;BME280;40029;58.708;50.190;2023-02-28T10:50:50;97780.09;;;-0.54;44.97
54122;BME280;40029;58.708;50.190;2023-02-28T11:04:05;97726.59;;;-0.96;46.02
54122;BME280;40029;58.708;50.190;2023-02-28T11:09:50;97730.19;;;-1.05;46.18
54122;BME280;40029;58.708;50.190;2023-02-28T11:12:38;97765.88;;;-0.66;46.62
54122;BME280;40029;58.708;50.190;2023-02-28T11:15:24;97794.59;;;-0.89;48.20
54122;BME280;40029;58.708;50.190;2023-02-28T11:18:06;97786.81;;;-0.86;46.71
54122;BME280;40029;58.708;50.190;2023-02-28T11:20:52;97763.47;;;-1.06;46.70
54122;BME280;40029;58.708;50.190;2023-02-28T11:23:26;97787.63;;;-0.84;46.97
54122;BME280;40029;58.708;50.190;2023-02-28T11:26:00;97745.03;;;-1.19;46.64
54122;BME280;40029;58.708;50.190;2023-02-28T11:29:02;97790.03;;;-0.78;46.31
54122;BME280;40029;58.708;50.190;2023-02-28T11:32:04;97792.47;;;-0.71;46.36
54122;BME280;40029;58.708;50.190;2023-02-28T11:34:37;97786.75;;;-0.83;45.93
54122;BME280;40029;58.708;50.190;2023-02-28T11:37:20;97794.13;;;-0.70;46.20
54122;BME280;40029;58.708;50.190;2023-02-28T11:39:51;97744.31;;;-0.90;46.64
54122;BME280;40029;58.708;50.190;2023-02-28T11:42:44;97753.88;;;-0.98;46.41
54122;BME280;40029;58.708;50.190;2023-02-28T11:50:54;97786.09;;;-0.91;46.66
54122;BME280;40029;58.708;50.190;2023-02-28T11:59:29;97785.75;;;-0.76;47.11
54122;BME280;40029;58.708;50.190;2023-02-28T12:02:26;97779.56;;;-0.68;47.33
54122;BME280;40029;58.708;50.190;2023-02-28T12:05:05;97787.28;;;-0.70;47.71
54122;BME280;40029;58.708;50.190;2023-02-28T12:10:29;97791.47;;;-0.66;46.71
54122;BME280;40029;58.708;50.190;2023-02-28T12:18:30;97776.81;;;-0.93;47.54
54122;BME280;40029;58.708;50.190;2023-02-28T12:21:39;97770.63;;;-0.85;47.26
54122;BME280;40029;58.708;50.190;2023-02-28T12:26:53;97738.81;;;-1.09;47.60
54122;BME280;40029;58.708;50.190;2023-02-28T12:29:29;97762.44;;;-0.99;47.14
54122;BME280;40029;58.708;50.190;2023-02-28T12:32:11;97764.75;;;-0.90;47.47
54122;BME280;40029;58.708;50.190;2023-02-28T12:34:47;97705.97;;;-1.24;46.86
54122;BME280;40029;58.708;50.190;2023-02-28T12:37:34;97709.16;;;-1.16;47.19
54122;BME280;40029;58.708;50.190;2023-02-28T12:40:41;97715.06;;;-1.12;47.60
54122;BME280;40029;58.708;50.190;2023-02-28T12:43:16;97762.38;;;-0.96;47.35
54122;BME280;40029;58.708;50.190;2023-02-28T12:45:55;97731.16;;;-1.09;47.24
54122;BME280;40029;58.708;50.190;2023-02-28T12:49:13;97778.53;;;-0.95;46.83
54122;BME280;40029;58.708;50.190;2023-02-28T12:51:47;97770.00;;;-0.94;47.75
54122;BME280;40029;58.708;50.190;2023-02-28T12:55:04;97774.13;;;-0.89;47.63
54122;BME280;40029;58.708;50.190;2023-02-28T13:00:02;97717.09;;;-1.27;47.61
54122;BME280;40029;58.708;50.190;2023-02-28T13:05:54;97760.72;;;-0.98;47.56
54122;BME280;40029;58.708;50.190;2023-02-28T13:08:42;97757.19;;;-0.93;47.33
54122;BME280;40029;58.708;50.190;2023-02-28T13:14:05;97757.31;;;-0.99;47.44
54122;BME280;40029;58.708;50.190;2023-02-28T13:24:56;97755.03;;;-1.10;47.57
54122;BME280;40029;58.708;50.190;2023-02-28T13:36:09;97696.91;;;-1.37;47.17
54122;BME280;40029;58.708;50.190;2023-02-28T13:38:45;97743.63;;;-0.96;47.06
54122;BME280;40029;58.708;50.190;2023-02-28T13:49:26;97758.50;;;-0.78;46.76
54122;BME280;40029;58.708;50.190;2023-02-28T14:11:34;97748.88;;;-1.01;47.13
54122;BME280;40029;58.708;50.190;2023-02-28T14:14:07;97689.28;;;-1.39;47.19
54122;BME280;40029;58.708;50.190;2023-02-28T14:19:34;97754.34;;;-0.81;47.49
54122;BME280;40029;58.708;50.190;2023-02-28T14:25:51;97752.03;;;-0.91;47.11
54122;BME280;40029;58.708;50.190;2023-02-28T14:37:01;97705.66;;;-1.12;47.76
54122;BME280;40029;58.708;50.190;2023-02-28T14:39:33;97728.97;;;-0.88;47.68
54122;BME280;40029;58.708;50.190;2023-02-28T14:42:29;97682.13;;;-1.24;47.83
54122;BME280;40029;58.708;50.190;2023-02-28T14:45:01;97703.16;;;-1.13;47.44
54122;BME280;40029;58.708;50.190;2023-02-28T14:47:35;97702.38;;;-1.17;48.06
54122;BME280;40029;58.708;50.190;2023-02-28T14:50:17;97735.91;;;-0.93;47.88
54122;BME280;40029;58.708;50.190;2023-02-28T14:52:53;97686.16;;;-1.14;48.09
54122;BME280;40029;58.708;50.190;2023-02-28T14:55:29;97673.50;;;-1.20;47.68
54122;BME280;40029;58.708;50.190;2023-02-28T14:58:03;97696.38;;;-1.14;48.36
54122;BME280;40029;58.708;50.190;2023-02-28T15:00:47;97719.69;;;-0.94;47.82
54122;BME280;40029;58.708;50.190;2023-02-28T15:03:39;97720.47;;;-0.90;47.85
54122;BME280;40029;58.708;50.190;2023-02-28T15:06:16;97724.03;;;-0.96;47.76
54122;BME280;40029;58.708;50.190;2023-02-28T15:09:16;97693.94;;;-1.20;48.28
54122;BME280;40029;58.708;50.190;2023-02-28T15:11:49;97726.53;;;-0.94;47.82
54122;BME280;40029;58.708;50.190;2023-02-28T15:14:21;97713.09;;;-1.03;48.37
54122;BME280;40029;58.708;50.190;2023-02-28T15:17:21;97694.44;;;-1.05;48.23
54122;BME280;40029;58.708;50.190;2023-02-28T15:19:54;97692.63;;;-1.01;47.90
54122;BME280;40029;58.708;50.190;2023-02-28T15:22:34;97721.47;;;-0.96;47.64
54122;BME280;40029;58.708;50.190;2023-02-28T15:25:06;97727.31;;;-0.91;48.35
54122;BME280;40029;58.708;50.190;2023-02-28T15:27:45;97726.22;;;-0.81;48.02
54122;BME280;40029;58.708;50.190;2023-02-28T15:30:29;97732.34;;;-0.88;47.66
54122;BME280;40029;58.708;50.190;2023-02-28T15:33:19;97722.25;;;-0.94;48.01
54122;BME280;40029;58.708;50.190;2023-02-28T15:36:02;97710.91;;;-0.82;48.11
54122;BME280;40029;58.708;50.190;2023-02-28T15:38:35;97700.19;;;-0.96;48.12
54122;BME280;40029;58.708;50.190;2023-02-28T15:41:31;97708.03;;;-1.04;47.45
54122;BME280;40029;58.708;50.190;2023-02-28T15:44:37;97625.38;;;-1.37;48.03
54122;BME280;40029;58.708;50.190;2023-02-28T15:47:17;97705.84;;;-0.85;47.49
54122;BME280;40029;58.708;50.190;2023-02-28T15:52:38;97663.22;;;-1.17;48.09
54122;BME280;40029;58.708;50.190;2023-02-28T15:55:22;97716.59;;;-0.72;48.14
54122;BME280;40029;58.708;50.190;2023-02-28T15:57:57;97702.22;;;-0.77;48.04
54122;BME280;40029;58.708;50.190;2023-02-28T16:03:42;97715.16;;;-0.83;48.40
54122;BME280;40029;58.708;50.190;2023-02-28T16:06:34;97712.53;;;-0.80;48.81
54122;BME280;40029;58.708;50.190;2023-02-28T16:09:10;97704.78;;;-0.77;48.51
54122;BME280;40029;58.708;50.190;2023-02-28T16:12:02;97694.59;;;-0.78;48.99
54122;BME280;40029;58.708;50.190;2023-02-28T16:14:35;97673.84;;;-1.00;48.80
54122;BME280;40029;58.708;50.190;2023-02-28T16:17:22;97694.88;;;-0.89;49.17
54122;BME280;40029;58.708;50.190;2023-02-28T16:19:55;97707.34;;;-0.77;49.15